sensor_id;sensor_type;location;lat;lon;timestamp;pressure;altitude;pressure_sealevel;temperature;humidity
71194;BME280;58903;47.210;8.618;2023-03-11T00:01:26;93185.78;;;26.35;38.76
71194;BME280;58903;47.210;8.618;2023-03-11T00:03:54;93196.06;;;26.35;38.63
71194;BME280;58903;47.210;8.618;2023-03-11T00:06:21;93212.78;;;26.37;39.01
71194;BME280;58903;47.210;8.618;2023-03-11T00:08:50;93189.81;;;26.34;38.66
71194;BME280;58903;47.210;8.618;2023-03-11T00:11:17;93192.03;;;26.36;38.02
71194;BME280;58903;47.210;8.618;2023-03-11T00:13:46;93189.28;;;26.36;38.04
71194;BME280;58903;47.210;8.618;2023-03-11T00:16:39;93179.53;;;26.35;38.68
71194;BME280;58903;47.210;8.618;2023-03-11T00:19:10;93188.53;;;26.35;37.78
71194;BME280;58903;47.210;8.618;2023-03-11T00:21:57;93203.41;;;26.32;38.46
71194;BME280;58903;47.210;8.618;2023-03-11T00:24:39;93202.69;;;26.32;37.87
71194;BME280;58903;47.210;8.618;2023-03-11T00:27:15;93205.06;;;26.35;38.46
71194;BME280;58903;47.210;8.618;2023-03-11T00:29:49;93182.28;;;26.35;38.08
71194;BME280;58903;47.210;8.618;2023-03-11T00:32:27;93187.59;;;26.33;38.80
71194;BME280;58903;47.210;8.618;2023-03-11T00:35:20;93200.63;;;26.32;38.75
71194;BME280;58903;47.210;8.618;2023-03-11T00:37:55;93207.66;;;26.33;38.67
71194;BME280;58903;47.210;8.618;2023-03-11T00:40:57;93206.16;;;26.32;38.82
71194;BME280;58903;47.210;8.618;2023-03-11T00:43:26;93191.66;;;26.32;38.78
71194;BME280;58903;47.210;8.618;2023-03-11T00:46:05;93191.09;;;26.33;38.01
71194;BME280;58903;47.210;8.618;2023-03-11T00:48:41;93202.13;;;26.33;38.03
71194;BME280;58903;47.210;8.618;2023-03-11T00:51:16;93192.94;;;26.31;38.18
71194;BME280;58903;47.210;8.618;2023-03-11T00:53:43;93173.63;;;26.31;38.76
71194;BME280;58903;47.210;8.618;2023-03-11T00:56:35;93184.09;;;26.32;37.90
71194;BME280;58903;47.210;8.618;2023-03-11T00:59:20;93196.22;;;26.29;38.13
71194;BME280;58903;47.210;8.618;2023-03-11T01:01:47;93188.50;;;26.28;38.83
71194;BME280;58903;47.210;8.618;2023-03-11T01:04:22;93183.34;;;26.24;38.27
71194;BME280;58903;47.210;8.618;2023-03-11T01:07:00;93194.72;;;26.21;38.33
71194;BME280;58903;47.210;8.618;2023-03-11T01:09:37;93194.31;;;26.16;38.77
71194;BME280;58903;47.210;8.618;2023-03-11T01:12:08;93186.44;;;26.21;38.27
71194;BME280;58903;47.210;8.618;2023-03-11T01:15:01;93185.91;;;26.22;38.58
71194;BME280;58903;47.210;8.618;2023-03-11T01:17:28;93178.72;;;26.19;38.24
71194;BME280;58903;47.210;8.618;2023-03-11T01:20:06;93171.75;;;26.18;38.18
71194;BME280;58903;47.210;8.618;2023-03-11T01:22:34;93176.88;;;26.14;39.07
71194;BME280;58903;47.210;8.618;2023-03-11T01:25:16;93170.44;;;26.19;38.87
71194;BME280;58903;47.210;8.618;2023-03-11T01:27:46;93170.06;;;26.15;38.98
71194;BME280;58903;47.210;8.618;2023-03-11T01:30:23;93182.38;;;26.14;39.09
71194;BME280;58903;47.210;8.618;2023-03-11T01:32:56;93183.84;;;26.15;39.04
71194;BME280;58903;47.210;8.618;2023-03-11T01:35:34;93174.09;;;26.14;38.60
71194;BME280;58903;47.210;8.618;2023-03-11T01:38:04;93186.41;;;26.13;38.22
71194;BME280;58903;47.210;8.618;2023-03-11T01:40:57;93189.72;;;26.11;38.40
71194;BME280;58903;47.210;8.618;2023-03-11T01:46:32;93164.91;;;26.11;38.21
71194;BME280;58903;47.210;8.618;2023-03-11T01:49:03;93177.19;;;26.10;39.17
71194;BME280;58903;47.210;8.618;2023-03-11T01:51:41;93192.03;;;26.07;39.14
71194;BME280;58903;47.210;8.618;2023-03-11T01:54:13;93191.31;;;26.07;38.41
71194;BME280;58903;47.210;8.618;2023-03-11T01:56:41;93164.81;;;26.04;38.76
71194;BME280;58903;47.210;8.618;2023-03-11T01:59:13;93147.53;;;26.03;38.79
71194;BME280;58903;47.210;8.618;2023-03-11T02:04:50;93150.53;;;26.05;39.31
71194;BME280;58903;47.210;8.618;2023-03-11T02:07:16;93153.81;;;26.04;39.06
71194;BME280;58903;47.210;8.618;2023-03-11T02:09:59;93163.38;;;26.03;38.85
71194;BME280;58903;47.210;8.618;2023-03-11T02:12:28;93155.09;;;26.03;39.00
71194;BME280;58903;47.210;8.618;2023-03-11T02:15:02;93154.16;;;26.00;38.86
71194;BME280;58903;47.210;8.618;2023-03-11T02:17:30;93139.09;;;26.01;38.61
71194;BME280;58903;47.210;8.618;2023-03-11T02:22:50;93135.44;;;25.99;39.07
71194;BME280;58903;47.210;8.618;2023-03-11T02:28:00;93134.31;;;26.02;38.63
71194;BME280;58903;47.210;8.618;2023-03-11T02:30:42;93121.09;;;26.00;39.28
71194;BME280;58903;47.210;8.618;2023-03-11T02:33:15;93143.88;;;26.01;39.34
71194;BME280;58903;47.210;8.618;2023-03-11T02:35:49;93148.97;;;25.97;39.10
71194;BME280;58903;47.210;8.618;2023-03-11T02:38:35;93160.75;;;25.97;39.17
71194;BME280;58903;47.210;8.618;2023-03-11T02:41:22;93170.31;;;25.96;39.44
71194;BME280;58903;47.210;8.618;2023-03-11T02:44:08;93184.28;;;25.98;38.60
71194;BME280;58903;47.210;8.618;2023-03-11T02:46:45;93178.75;;;25.98;39.19
71194;BME280;58903;47.210;8.618;2023-03-11T02:49:11;93166.25;;;25.97;38.88
71194;BME280;58903;47.210;8.618;2023-03-11T02:55:09;93183.34;;;25.96;39.43
71194;BME280;58903;47.210;8.618;2023-03-11T02:57:43;93192.34;;;25.96;39.30
71194;BME280;58903;47.210;8.618;2023-03-11T03:00:17;93191.59;;;25.96;38.59
71194;BME280;58903;47.210;8.618;2023-03-11T03:02:44;93179.84;;;25.95;39.47
71194;BME280;58903;47.210;8.618;2023-03-11T03:05:40;93167.34;;;25.94;38.92
71194;BME280;58903;47.210;8.618;2023-03-11T03:08:16;93159.63;;;25.93;39.17
71194;BME280;58903;47.210;8.618;2023-03-11T03:10:42;93162.56;;;25.95;39.26
71194;BME280;58903;47.210;8.618;2023-03-11T03:13:10;93164.41;;;25.92;39.06
71194;BME280;58903;47.210;8.618;2023-03-11T03:16:06;93158.34;;;25.94;38.57
71194;BME280;58903;47.210;8.618;2023-03-11T03:18:36;93148.41;;;25.91;39.25
71194;BME280;58903;47.210;8.618;2023-03-11T03:21:03;93159.09;;;25.94;39.67
71194;BME280;58903;47.210;8.618;2023-03-11T03:23:40;93172.31;;;25.96;38.96
71194;BME280;58903;47.210;8.618;2023-03-11T03:26:25;93166.63;;;25.94;38.83
71194;BME280;58903;47.210;8.618;2023-03-11T03:29:25;93168.63;;;25.93;39.09
71194;BME280;58903;47.210;8.618;2023-03-11T03:35:22;93165.13;;;25.93;39.08
71194;BME280;58903;47.210;8.618;2023-03-11T03:37:50;93158.16;;;25.92;39.48
71194;BME280;58903;47.210;8.618;2023-03-11T03:40:16;93170.63;;;25.93;38.95
71194;BME280;58903;47.210;8.618;2023-03-11T03:42:47;93157.59;;;25.93;39.04
71194;BME280;58903;47.210;8.618;2023-03-11T03:45:13;93141.63;;;25.92;39.21
71194;BME280;58903;47.210;8.618;2023-03-11T03:47:47;93145.66;;;25.91;39.34
71194;BME280;58903;47.210;8.618;2023-03-11T03:50:14;93149.88;;;25.92;39.43
71194;BME280;58903;47.210;8.618;2023-03-11T03:52:41;93151.91;;;25.91;38.66
71194;BME280;58903;47.210;8.618;2023-03-11T03:55:12;93155.91;;;25.90;39.31
71194;BME280;58903;47.210;8.618;2023-03-11T03:57:39;93150.63;;;25.92;38.64
71194;BME280;58903;47.210;8.618;2023-03-11T04:00:06;93164.41;;;25.92;39.13
71194;BME280;58903;47.210;8.618;2023-03-11T04:02:37;93151.34;;;25.93;38.69
71194;BME280;58903;47.210;8.618;2023-03-11T04:05:04;93158.91;;;25.92;38.91
71194;BME280;58903;47.210;8.618;2023-03-11T04:07:41;93173.19;;;25.91;38.61
71194;BME280;58903;47.210;8.618;2023-03-11T04:10:07;93180.94;;;25.92;39.28
71194;BME280;58903;47.210;8.618;2023-03-11T04:12:41;93172.69;;;25.92;39.54
71194;BME280;58903;47.210;8.618;2023-03-11T04:15:08;93162.91;;;25.91;39.54
71194;BME280;58903;47.210;8.618;2023-03-11T04:17:35;93150.41;;;25.90;38.63
71194;BME280;58903;47.210;8.618;2023-03-11T04:20:03;93158.47;;;25.88;38.80
71194;BME280;58903;47.210;8.618;2023-03-11T04:22:33;93158.69;;;25.90;38.76
71194;BME280;58903;47.210;8.618;2023-03-11T04:25:02;93168.44;;;25.91;39.29
71194;BME280;58903;47.210;8.618;2023-03-11T04:27:30;93148.94;;;25.89;38.97
71194;BME280;58903;47.210;8.618;2023-03-11T04:29:59;93156.47;;;25.89;39.47
71194;BME280;58903;47.210;8.618;2023-03-11T04:32:31;93158.16;;;25.92;39.37
71194;BME280;58903;47.210;8.618;2023-03-11T04:34:57;93148.75;;;25.87;38.62
71194;BME280;58903;47.210;8.618;2023-03-11T04:37:27;93148.94;;;25.89;39.06
71194;BME280;58903;47.210;8.618;2023-03-11T04:39:52;93149.69;;;25.90;39.32
71194;BME280;58903;47.210;8.618;2023-03-11T04:42:20;93144.19;;;25.90;39.28
71194;BME280;58903;47.210;8.618;2023-03-11T04:44:46;93153.16;;;25.90;39.53
71194;BME280;58903;47.210;8.618;2023-03-11T04:47:18;93159.22;;;25.89;39.37
71194;BME280;58903;47.210;8.618;2023-03-11T04:49:44;93157.22;;;25.89;39.42
71194;BME280;58903;47.210;8.618;2023-03-11T04:52:12;93155.72;;;25.88;39.75
71194;BME280;58903;47.210;8.618;2023-03-11T04:54:41;93131.84;;;25.83;39.17
71194;BME280;58903;47.210;8.618;2023-03-11T04:57:07;93158.47;;;25.88;39.27
71194;BME280;58903;47.210;8.618;2023-03-11T04:59:52;93154.28;;;25.87;39.38
71194;BME280;58903;47.210;8.618;2023-03-11T05:02:27;93151.50;;;25.87;38.90
71194;BME280;58903;47.210;8.618;2023-03-11T05:04:54;93148.56;;;25.85;39.64
71194;BME280;58903;47.210;8.618;2023-03-11T05:07:22;93167.84;;;25.85;38.94
71194;BME280;58903;47.210;8.618;2023-03-11T05:09:51;93173.16;;;25.83;39.85
71194;BME280;58903;47.210;8.618;2023-03-11T05:12:20;93176.13;;;25.85;38.72
71194;BME280;58903;47.210;8.618;2023-03-11T05:14:58;93181.22;;;25.81;39.24
71194;BME280;58903;47.210;8.618;2023-03-11T05:17:25;93166.91;;;25.83;39.24
71194;BME280;58903;47.210;8.618;2023-03-11T05:19:58;93175.91;;;25.83;39.78
71194;BME280;58903;47.210;8.618;2023-03-11T05:22:30;93179.94;;;25.82;39.39
71194;BME280;58903;47.210;8.618;2023-03-11T05:24:59;93183.44;;;25.83;38.88
71194;BME280;58903;47.210;8.618;2023-03-11T05:27:31;93177.94;;;25.83;39.14
71194;BME280;58903;47.210;8.618;2023-03-11T05:29:58;93178.66;;;25.83;39.18
71194;BME280;58903;47.210;8.618;2023-03-11T05:32:32;93176.44;;;25.82;39.38
71194;BME280;58903;47.210;8.618;2023-03-11T05:35:31;93187.47;;;25.82;38.84
71194;BME280;58903;47.210;8.618;2023-03-11T05:37:59;93188.75;;;25.81;39.67
71194;BME280;58903;47.210;8.618;2023-03-11T05:40:31;93197.56;;;25.79;39.62
71194;BME280;58903;47.210;8.618;2023-03-11T05:43:03;93194.81;;;25.79;39.21
71194;BME280;58903;47.210;8.618;2023-03-11T05:45:31;93199.75;;;25.81;38.60
71194;BME280;58903;47.210;8.618;2023-03-11T05:47:57;93194.06;;;25.79;38.61
71194;BME280;58903;47.210;8.618;2023-03-11T05:50:23;93196.06;;;25.78;38.99
71194;BME280;58903;47.210;8.618;2023-03-11T05:52:49;93196.81;;;25.79;39.69
71194;BME280;58903;47.210;8.618;2023-03-11T05:55:22;93189.31;;;25.79;39.40
71194;BME280;58903;47.210;8.618;2023-03-11T05:57:54;93191.84;;;25.77;39.56
71194;BME280;58903;47.210;8.618;2023-03-11T06:00:20;93199.22;;;25.82;39.26
71194;BME280;58903;47.210;8.618;2023-03-11T06:02:48;93185.25;;;25.80;39.27
71194;BME280;58903;47.210;8.618;2023-03-11T06:05:14;93176.03;;;25.78;39.50
71194;BME280;58903;47.210;8.618;2023-03-11T06:07:40;93181.56;;;25.78;39.08
71194;BME280;58903;47.210;8.618;2023-03-11T06:10:07;93178.81;;;25.78;38.92
71194;BME280;58903;47.210;8.618;2023-03-11T06:12:35;93182.31;;;25.78;39.20
71194;BME280;58903;47.210;8.618;2023-03-11T06:15:14;93181.56;;;25.78;39.39
71194;BME280;58903;47.210;8.618;2023-03-11T06:17:41;93187.81;;;25.78;39.33
71194;BME280;58903;47.210;8.618;2023-03-11T06:20:18;93185.06;;;25.78;39.41
71194;BME280;58903;47.210;8.618;2023-03-11T06:22:49;93180.84;;;25.77;39.16
71194;BME280;58903;47.210;8.618;2023-03-11T06:25:26;93185.25;;;25.80;38.91
71194;BME280;58903;47.210;8.618;2023-03-11T06:27:53;93181.94;;;25.82;39.69
71194;BME280;58903;47.210;8.618;2023-03-11T06:30:22;93199.97;;;25.83;39.19
71194;BME280;58903;47.210;8.618;2023-03-11T06:33:08;93199.97;;;25.83;39.53
71194;BME280;58903;47.210;8.618;2023-03-11T06:35:55;93209.50;;;25.82;39.57
71194;BME280;58903;47.210;8.618;2023-03-11T06:38:35;93212.25;;;25.82;39.55
71194;BME280;58903;47.210;8.618;2023-03-11T06:41:11;93221.59;;;25.79;39.69
71194;BME280;58903;47.210;8.618;2023-03-11T06:43:46;93220.88;;;25.78;39.64
71194;BME280;58903;47.210;8.618;2023-03-11T06:46:20;93225.63;;;25.78;39.18
71194;BME280;58903;47.210;8.618;2023-03-11T06:48:57;93237.59;;;25.80;38.66
71194;BME280;58903;47.210;8.618;2023-03-11T06:51:23;93233.38;;;25.79;39.44
71194;BME280;58903;47.210;8.618;2023-03-11T06:53:57;93246.59;;;25.81;39.18
71194;BME280;58903;47.210;8.618;2023-03-11T06:56:43;93243.88;;;25.88;39.23
71194;BME280;58903;47.210;8.618;2023-03-11T06:59:14;93253.28;;;25.93;38.59
71194;BME280;58903;47.210;8.618;2023-03-11T07:01:40;93247.56;;;25.91;38.92
71194;BME280;58903;47.210;8.618;2023-03-11T07:04:16;93249.59;;;25.90;38.98
71194;BME280;58903;47.210;8.618;2023-03-11T07:06:45;93244.06;;;25.90;39.32
71194;BME280;58903;47.210;8.618;2023-03-11T07:09:16;93246.84;;;25.90;39.33
71194;BME280;58903;47.210;8.618;2023-03-11T07:11:46;93259.16;;;25.89;38.57
71194;BME280;58903;47.210;8.618;2023-03-11T07:14:21;93253.44;;;25.87;39.36
71194;BME280;58903;47.210;8.618;2023-03-11T07:16:50;93254.00;;;25.86;38.89
71194;BME280;58903;47.210;8.618;2023-03-11T07:19:16;93264.47;;;25.87;39.41
71194;BME280;58903;47.210;8.618;2023-03-11T07:21:58;93267.97;;;25.88;39.83
71194;BME280;58903;47.210;8.618;2023-03-11T07:24:28;93273.47;;;25.88;39.55
71194;BME280;58903;47.210;8.618;2023-03-11T07:27:15;93272.19;;;25.89;39.90
71194;BME280;58903;47.210;8.618;2023-03-11T07:30:02;93269.41;;;25.89;39.40
71194;BME280;58903;47.210;8.618;2023-03-11T07:32:32;93260.59;;;25.90;39.92
71194;BME280;58903;47.210;8.618;2023-03-11T07:35:28;93266.13;;;25.90;39.13
71194;BME280;58903;47.210;8.618;2023-03-11T07:37:54;93263.34;;;25.90;38.93
71194;BME280;58903;47.210;8.618;2023-03-11T07:40:21;93256.19;;;25.87;38.92
71194;BME280;58903;47.210;8.618;2023-03-11T07:42:52;93249.94;;;25.87;39.31
71194;BME280;58903;47.210;8.618;2023-03-11T07:45:18;93253.25;;;25.85;39.47
71194;BME280;58903;47.210;8.618;2023-03-11T07:47:45;93258.75;;;25.85;39.19
71194;BME280;58903;47.210;8.618;2023-03-11T07:50:15;93255.78;;;25.83;39.69
71194;BME280;58903;47.210;8.618;2023-03-11T07:52:43;93255.06;;;25.83;39.16
71194;BME280;58903;47.210;8.618;2023-03-11T07:55:09;93252.09;;;25.81;39.05
71194;BME280;58903;47.210;8.618;2023-03-11T07:57:35;93261.31;;;25.83;39.98
71194;BME280;58903;47.210;8.618;2023-03-11T08:00:03;93264.59;;;25.82;39.22
71194;BME280;58903;47.210;8.618;2023-03-11T08:02:30;93261.31;;;25.83;39.37
71194;BME280;58903;47.210;8.618;2023-03-11T08:04:56;93267.75;;;25.86;39.67
71194;BME280;58903;47.210;8.618;2023-03-11T08:07:22;93269.97;;;25.87;39.02
71194;BME280;58903;47.210;8.618;2023-03-11T08:09:50;93265.53;;;25.84;39.54
71194;BME280;58903;47.210;8.618;2023-03-11T08:12:19;93265.91;;;25.88;38.59
71194;BME280;58903;47.210;8.618;2023-03-11T08:14:45;93264.09;;;25.91;39.52
71194;BME280;58903;47.210;8.618;2023-03-11T08:17:16;93263.16;;;25.88;39.02
71194;BME280;58903;47.210;8.618;2023-03-11T08:19:44;93268.69;;;25.88;39.35
71194;BME280;58903;47.210;8.618;2023-03-11T08:22:12;93281.72;;;25.88;39.91
71194;BME280;58903;47.210;8.618;2023-03-11T08:24:38;93283.75;;;25.87;39.65
71194;BME280;58903;47.210;8.618;2023-03-11T08:30:09;93291.34;;;25.94;39.15
71194;BME280;58903;47.210;8.618;2023-03-11T08:32:36;93291.34;;;25.94;39.36
71194;BME280;58903;47.210;8.618;2023-03-11T08:35:12;93309.19;;;26.01;39.32
71194;BME280;58903;47.210;8.618;2023-03-11T08:38:02;93308.25;;;25.98;39.55
71194;BME280;58903;47.210;8.618;2023-03-11T08:40:42;93318.69;;;25.92;39.43
71194;BME280;58903;47.210;8.618;2023-03-11T08:43:12;93322.31;;;25.87;39.28
71194;BME280;58903;47.210;8.618;2023-03-11T08:45:40;93327.06;;;25.87;39.24
71194;BME280;58903;47.210;8.618;2023-03-11T08:48:09;93337.34;;;25.86;39.94
71194;BME280;58903;47.210;8.618;2023-03-11T08:50:38;93335.72;;;25.91;40.01
71194;BME280;58903;47.210;8.618;2023-03-11T08:53:06;93334.59;;;25.86;39.64
71194;BME280;58903;47.210;8.618;2023-03-11T08:55:38;93335.53;;;25.89;39.63
71194;BME280;58903;47.210;8.618;2023-03-11T08:58:06;93337.53;;;25.88;39.59
71194;BME280;58903;47.210;8.618;2023-03-11T09:00:41;93338.63;;;25.85;39.80
71194;BME280;58903;47.210;8.618;2023-03-11T09:03:09;93349.84;;;25.87;39.81
71194;BME280;58903;47.210;8.618;2023-03-11T09:05:35;93344.53;;;25.89;40.14
71194;BME280;58903;47.210;8.618;2023-03-11T09:08:02;93345.09;;;25.88;39.98
71194;BME280;58903;47.210;8.618;2023-03-11T09:10:28;93340.28;;;25.88;40.27
71194;BME280;58903;47.210;8.618;2023-03-11T09:12:54;93341.78;;;25.89;39.98
71194;BME280;58903;47.210;8.618;2023-03-11T09:15:22;93345.81;;;25.88;39.63
71194;BME280;58903;47.210;8.618;2023-03-11T09:17:51;93336.94;;;25.82;40.65
71194;BME280;58903;47.210;8.618;2023-03-11T09:20:17;93347.28;;;25.89;40.28
71194;BME280;58903;47.210;8.618;2023-03-11T09:23:16;93345.81;;;25.88;40.36
71194;BME280;58903;47.210;8.618;2023-03-11T09:25:43;93346.34;;;25.87;40.14
71194;BME280;58903;47.210;8.618;2023-03-11T09:28:22;93356.81;;;25.88;40.66
71194;BME280;58903;47.210;8.618;2023-03-11T09:30:52;93362.88;;;25.87;39.91
71194;BME280;58903;47.210;8.618;2023-03-11T09:33:29;93357.91;;;25.85;40.06
71194;BME280;58903;47.210;8.618;2023-03-11T09:35:57;93358.31;;;25.89;39.74
71194;BME280;58903;47.210;8.618;2023-03-11T09:38:24;93364.78;;;25.92;40.65
71194;BME280;58903;47.210;8.618;2023-03-11T09:41:00;93368.03;;;25.90;40.37
71194;BME280;58903;47.210;8.618;2023-03-11T10:01:18;93387.75;;;25.94;41.40
71194;BME280;58903;47.210;8.618;2023-03-11T10:03:49;93384.47;;;25.96;40.96
71194;BME280;58903;47.210;8.618;2023-03-11T10:06:21;93395.13;;;25.99;40.43
71194;BME280;58903;47.210;8.618;2023-03-11T10:09:34;93401.78;;;26.04;40.40
71194;BME280;58903;47.210;8.618;2023-03-11T10:12:17;93402.34;;;26.02;40.30
71194;BME280;58903;47.210;8.618;2023-03-11T10:15:21;93410.59;;;26.02;40.71
71194;BME280;58903;47.210;8.618;2023-03-11T10:26:42;93399.94;;;25.99;41.58
71194;BME280;58903;47.210;8.618;2023-03-11T10:32:53;93393.44;;;26.09;40.69
71194;BME280;58903;47.210;8.618;2023-03-11T10:35:42;93399.78;;;26.04;41.11
71194;BME280;58903;47.210;8.618;2023-03-11T10:38:34;93393.31;;;26.02;41.24
71194;BME280;58903;47.210;8.618;2023-03-11T10:41:26;93398.84;;;26.02;40.56
71194;BME280;58903;47.210;8.618;2023-03-11T10:44:14;93407.00;;;26.07;41.25
71194;BME280;58903;47.210;8.618;2023-03-11T10:46:41;93406.31;;;26.14;40.66
71194;BME280;58903;47.210;8.618;2023-03-11T10:49:19;93395.94;;;26.21;40.02
71194;BME280;58903;47.210;8.618;2023-03-11T10:51:50;93403.84;;;26.24;39.73
71194;BME280;58903;47.210;8.618;2023-03-11T10:54:58;93395.03;;;26.26;40.02
71194;BME280;58903;47.210;8.618;2023-03-11T10:57:32;93391.19;;;26.29;39.65
71194;BME280;58903;47.210;8.618;2023-03-11T11:00:08;93392.66;;;26.30;39.08
71194;BME280;58903;47.210;8.618;2023-03-11T11:03:10;93392.91;;;26.32;38.46
71194;BME280;58903;47.210;8.618;2023-03-11T11:06:28;93392.91;;;26.32;38.35
71194;BME280;58903;47.210;8.618;2023-03-11T11:14:46;93392.47;;;26.28;37.87
71194;BME280;58903;47.210;8.618;2023-03-11T11:17:34;93386.56;;;26.24;37.53
71194;BME280;58903;47.210;8.618;2023-03-11T11:20:18;93396.13;;;26.23;37.87
71194;BME280;58903;47.210;8.618;2023-03-11T11:23:05;93397.53;;;26.16;37.76
71194;BME280;58903;47.210;8.618;2023-03-11T11:25:42;;;;26.19;
71194;BME280;58903;47.210;8.618;2023-03-11T11:28:19;93398.47;;;26.19;38.11
71194;BME280;58903;47.210;8.618;2023-03-11T11:31:03;93401.44;;;26.21;37.87
71194;BME280;58903;47.210;8.618;2023-03-11T11:33:35;93402.34;;;26.23;39.10
71194;BME280;58903;47.210;8.618;2023-03-11T11:36:13;93406.06;;;26.26;38.40
71194;BME280;58903;47.210;8.618;2023-03-11T11:38:43;93403.91;;;26.32;38.60
71194;BME280;58903;47.210;8.618;2023-03-11T11:41:16;93402.44;;;26.31;37.96
71194;BME280;58903;47.210;8.618;2023-03-11T11:43:49;93397.97;;;26.28;39.04
71194;BME280;58903;47.210;8.618;2023-03-11T11:46:46;93396.91;;;26.31;39.02
71194;BME280;58903;47.210;8.618;2023-03-11T11:49:20;93393.22;;;26.28;39.03
71194;BME280;58903;47.210;8.618;2023-03-11T11:57:13;93391.78;;;26.35;38.60
71194;BME280;58903;47.210;8.618;2023-03-11T11:59:43;93389.97;;;26.37;38.88
71194;BME280;58903;47.210;8.618;2023-03-11T12:05:16;93383.41;;;26.40;38.94
71194;BME280;58903;47.210;8.618;2023-03-11T12:08:16;93380.09;;;26.42;38.99
71194;BME280;58903;47.210;8.618;2023-03-11T12:11:01;93376.59;;;26.41;39.14
71194;BME280;58903;47.210;8.618;2023-03-11T12:19:53;93374.38;;;26.40;38.44
71194;BME280;58903;47.210;8.618;2023-03-11T12:29:16;93373.09;;;26.41;38.46
71194;BME280;58903;47.210;8.618;2023-03-11T12:31:46;93367.19;;;26.37;38.77
71194;BME280;58903;47.210;8.618;2023-03-11T12:34:25;93359.47;;;26.35;39.44
71194;BME280;58903;47.210;8.618;2023-03-11T12:36:59;93360.41;;;26.38;39.08
71194;BME280;58903;47.210;8.618;2023-03-11T12:39:33;93368.69;;;26.38;38.69
71194;BME280;58903;47.210;8.618;2023-03-11T12:42:37;93367.53;;;26.33;39.20
71194;BME280;58903;47.210;8.618;2023-03-11T12:45:49;93365.53;;;26.34;39.36
71194;BME280;58903;47.210;8.618;2023-03-11T12:54:27;93356.16;;;26.37;39.67
71194;BME280;58903;47.210;8.618;2023-03-11T13:06:47;93360.94;;;26.36;38.94
71194;BME280;58903;47.210;8.618;2023-03-11T13:09:24;93357.44;;;26.36;38.89
71194;BME280;58903;47.210;8.618;2023-03-11T13:12:01;93361.13;;;26.38;39.60
71194;BME280;58903;47.210;8.618;2023-03-11T13:14:34;93356.16;;;26.37;39.05
71194;BME280;58903;47.210;8.618;2023-03-11T13:17:35;93364.63;;;26.39;39.36
71194;BME280;58903;47.210;8.618;2023-03-11T13:20:40;93365.91;;;26.38;39.54
71194;BME280;58903;47.210;8.618;2023-03-11T13:23:23;93364.44;;;26.37;38.95
71194;BME280;58903;47.210;8.618;2023-03-11T13:34:24;93362.59;;;26.39;38.86
71194;BME280;58903;47.210;8.618;2023-03-11T13:42:40;93367.19;;;26.37;39.18
71194;BME280;58903;47.210;8.618;2023-03-11T13:45:21;93368.69;;;26.38;38.52
71194;BME280;58903;47.210;8.618;2023-03-11T13:48:19;93370.50;;;26.35;39.20
71194;BME280;58903;47.210;8.618;2023-03-11T13:54:01;93374.88;;;26.31;39.36
71194;BME280;58903;47.210;8.618;2023-03-11T13:56:38;93388.28;;;26.34;39.04
71194;BME280;58903;47.210;8.618;2023-03-11T13:59:24;93387.56;;;26.34;38.70
71194;BME280;58903;47.210;8.618;2023-03-11T14:02:15;93390.34;;;26.34;39.54
71194;BME280;58903;47.210;8.618;2023-03-11T14:04:56;93392.34;;;26.33;39.40
71194;BME280;58903;47.210;8.618;2023-03-11T14:07:36;93397.31;;;26.35;39.35
71194;BME280;58903;47.210;8.618;2023-03-11T14:13:20;93387.03;;;26.35;39.37
71194;BME280;58903;47.210;8.618;2023-03-11T14:19:03;93395.50;;;26.37;39.92
71194;BME280;58903;47.210;8.618;2023-03-11T14:21:50;93397.31;;;26.35;39.03
71194;BME280;58903;47.210;8.618;2023-03-11T14:27:08;93400.06;;;26.35;39.07
71194;BME280;58903;47.210;8.618;2023-03-11T14:29:40;93400.06;;;26.35;39.33
71194;BME280;58903;47.210;8.618;2023-03-11T14:32:34;93401.38;;;26.34;38.97
71194;BME280;58903;47.210;8.618;2023-03-11T14:35:19;93403.78;;;26.37;39.46
71194;BME280;58903;47.210;8.618;2023-03-11T14:37:46;93408.00;;;26.38;39.34
71194;BME280;58903;47.210;8.618;2023-03-11T14:40:29;93410.03;;;26.38;38.92
71194;BME280;58903;47.210;8.618;2023-03-11T14:43:18;93407.78;;;26.36;38.98
71194;BME280;58903;47.210;8.618;2023-03-11T14:46:06;93415.34;;;26.36;39.61
71194;BME280;58903;47.210;8.618;2023-03-11T14:48:35;93411.09;;;26.35;39.41
71194;BME280;58903;47.210;8.618;2023-03-11T14:51:10;93411.28;;;26.37;39.05
71194;BME280;58903;47.210;8.618;2023-03-11T14:54:07;93413.09;;;26.34;38.95
71194;BME280;58903;47.210;8.618;2023-03-11T14:56:53;93410.69;;;26.31;38.51
71194;BME280;58903;47.210;8.618;2023-03-11T14:59:32;93420.47;;;26.32;39.46
71194;BME280;58903;47.210;8.618;2023-03-11T15:05:16;93409.00;;;26.28;39.18
71194;BME280;58903;47.210;8.618;2023-03-11T15:08:01;93414.00;;;26.29;39.23
71194;BME280;58903;47.210;8.618;2023-03-11T15:10:27;93417.47;;;26.30;39.73
71194;BME280;58903;47.210;8.618;2023-03-11T15:13:09;93416.00;;;26.29;39.53
71194;BME280;58903;47.210;8.618;2023-03-11T15:15:37;93420.03;;;26.28;39.51
71194;BME280;58903;47.210;8.618;2023-03-11T15:18:24;93420.22;;;26.30;38.89
71194;BME280;58903;47.210;8.618;2023-03-11T15:21:25;93423.53;;;26.28;38.67
71194;BME280;58903;47.210;8.618;2023-03-11T15:24:18;93429.78;;;26.29;39.52
71194;BME280;58903;47.210;8.618;2023-03-11T15:27:06;93424.09;;;26.27;39.63
71194;BME280;58903;47.210;8.618;2023-03-11T15:30:27;93423.88;;;26.25;38.80
71194;BME280;58903;47.210;8.618;2023-03-11T15:33:22;93418.88;;;26.23;38.79
71194;BME280;58903;47.210;8.618;2023-03-11T15:36:04;93416.69;;;26.22;39.65
71194;BME280;58903;47.210;8.618;2023-03-11T15:38:32;93408.75;;;26.18;38.91
71194;BME280;58903;47.210;8.618;2023-03-11T15:41:11;93419.97;;;26.20;38.44
71194;BME280;58903;47.210;8.618;2023-03-11T15:43:46;93410.56;;;26.15;39.58
71194;BME280;58903;47.210;8.618;2023-03-11T15:46:22;93418.09;;;26.15;39.29
71194;BME280;58903;47.210;8.618;2023-03-11T15:48:50;93418.72;;;26.08;38.57